Briefing drone pour Coursan

Rechercher une autre localisation

Conditions de vol :


Nous sommes le : Vendredi 19 avril 2024
Il est 21:19 UTC (23:19 LT)

Lever de soleil : 04:31 UTC (06:31 LT)
Coucher de soleil : 19:02 UTC (21:02 LT)

Météo

L'essentiel des conditions de vol

VIGILANCE MÉTÉO FRANCE - Aude (11)
Pas de vigilances particulieres
METAR de LFMU
LFMU 192100Z AUTO 28003KT CAVOK 13/M02 Q1017

Date d'émission: 19/04/2024
Heure d'émission: 21:00 UTC
Vent: 280° pour 3 KT (6 km/h)
Visibilité horizontale: > 10 km
Plafond : Plafond et visibilité OK (CAVOK)
Température: 13 °C
Point de rosée: -2 °C
Humidité: 35%
Pression (QNH): 1017 hPa
TAF de LFMU
LFMU 192030Z 1920/2015 CNL

Conditions prévues :

Heure d'émission : Bulletin éffectué le 19 à 20:00 UTC
Prévision : Valide du 19 a 20:00 UTC au 20 a 15:00 UTC
Nuages : à 0ft (0 m)
WEBCAM POUR COURSAN

Réglementation

Voler en sécurité

CARTES AERONAUTIQUE 1/500.000
CARTE AZBA (Reseau basse altitude)
CARTES VAC (LFMU)
SUP AIP




Chargement des AIP...
NOTAM (COURSAN + Terrain à proximité / FIR )




Chargement des NOTAMS...
CONTACT PREFECTURE 11
Aude (11) : [email protected]


Avertissement : Les données mises à disposition sont indicatives. Oxygène Drone ne pourra être tenu responsable de dégâts causés aux biens et aux personnes.